Time;durP1;ratioP1;P1;durP2;ratioP2;P2;SDS_P1;SDS_P2;PMS_P1;PMS_P2;Temp;Humidity;BMP_temperature;BMP_pressure;BME280_temperature;BME280_humidity;BME280_pressure;Samples;Min_cycle;Max_cycle;Signal;HPM_P1;HPM_P2
2020/12/19 00:00:31;;;;;;;;;;;;;;;-0.75;94.24;102098.27;1832433;78;20153;-37
2020/12/19 00:03:01;;;;;;;;;;;;;;;-0.74;94.38;102096.19;1832460;78;20124;-36
2020/12/19 00:05:28;;;;;;;;;;;;;;;-0.74;94.48;102101.73;1803078;78;20449;-34
2020/12/19 00:07:56;;;;;;;;;;;;;;;-0.76;94.61;102102.94;1833198;77;20137;-36
2020/12/19 00:10:23;;;;;;;;;;;;;;;-0.78;94.75;102104.53;1833123;77;20137;-35
2020/12/19 00:12:51;;;;;;;;;;;;;;;-0.80;94.93;102108.75;1833374;77;20134;-36
2020/12/19 00:15:19;;;;;;;;;;;;;;;-0.82;95.06;102104.80;1832575;78;20177;-36
2020/12/19 00:17:47;;;;;;;;;;;;;;;-0.83;95.21;102098.27;1832613;77;20271;-36
2020/12/19 00:20:15;;;;;;;;;;;;;;;-0.83;95.32;102102.13;1820994;78;20212;-36
2020/12/19 00:22:46;;;;;;;;;;;;;;;-0.84;95.46;102101.64;1832810;78;20164;-35
2020/12/19 00:25:13;;;;;;;;;;;;;;;-0.86;95.60;102100.31;1832618;78;20216;-36
2020/12/19 00:27:41;;;;;;;;;;;;;;;-0.86;95.78;102107.14;1832793;78;20161;-34
2020/12/19 00:30:09;;;;;;;;;;;;;;;-0.88;95.94;102100.62;1832738;78;20124;-35
2020/12/19 00:32:40;;;;;;;;;;;;;;;-0.86;96.09;102099.42;1834321;77;20196;-35
2020/12/19 00:35:09;;;;;;;;;;;;;;;-0.89;96.19;102092.41;1848693;77;20126;-36
2020/12/19 00:37:42;;;;;;;;;;;;;;;-0.91;96.35;102091.44;1832551;78;20145;-35
2020/12/19 00:40:09;;;;;;;;;;;;;;;-0.89;96.48;102094.09;1832615;78;20191;-37
2020/12/19 00:42:38;;;;;;;;;;;;;;;-0.88;96.58;102090.72;1832618;78;20124;-36
2020/12/19 00:45:07;;;;;;;;;;;;;;;-0.88;96.69;102090.32;1832749;78;20141;-36
2020/12/19 00:47:38;;;;;;;;;;;;;;;-0.89;96.80;102087.27;1832704;78;20180;-36
2020/12/19 00:50:07;;;;;;;;;;;;;;;-0.92;96.87;102082.38;1832440;78;20215;-36
2020/12/19 00:52:35;;;;;;;;;;;;;;;-0.97;97.03;102087.26;1833178;78;20165;-36
2020/12/19 00:55:03;;;;;;;;;;;;;;;-0.99;97.20;102080.28;1833037;78;20180;-36
2020/12/19 00:57:31;;;;;;;;;;;;;;;-1.02;97.35;102082.69;1832726;78;20149;-37
2020/12/19 00:59:59;;;;;;;;;;;;;;;-1.01;97.54;102077.63;1832413;78;20125;-36
2020/12/19 01:02:27;;;;;;;;;;;;;;;-1.00;97.68;102074.66;1834404;77;20184;-36
2020/12/19 01:04:57;;;;;;;;;;;;;;;-1.00;97.81;102074.66;1831632;77;20180;-36
2020/12/19 01:07:24;;;;;;;;;;;;;;;-1.01;97.98;102073.77;1834936;78;20194;-36
2020/12/19 01:09:52;;;;;;;;;;;;;;;-1.00;98.07;102070.79;1834849;78;20165;-36
2020/12/19 01:12:20;;;;;;;;;;;;;;;-1.00;98.22;102068.22;1832413;78;20132;-36
2020/12/19 01:14:48;;;;;;;;;;;;;;;-1.00;98.32;102066.92;1832624;78;20252;-36
2020/12/19 01:17:15;;;;;;;;;;;;;;;-1.02;98.40;102060.81;1832529;78;20137;-36
2020/12/19 01:19:43;;;;;;;;;;;;;;;-1.04;98.55;102064.58;1832569;78;20160;-36
2020/12/19 01:22:11;;;;;;;;;;;;;;;-1.05;98.70;102058.95;1832622;78;20264;-35
2020/12/19 01:24:39;;;;;;;;;;;;;;;-1.05;98.87;102059.38;1832727;78;20152;-37
2020/12/19 01:27:08;;;;;;;;;;;;;;;-1.06;99.03;102058.89;1832562;78;20275;-36
2020/12/19 01:29:36;;;;;;;;;;;;;;;-1.10;99.19;102054.38;1832329;78;20136;-37
2020/12/19 01:32:03;;;;;;;;;;;;;;;-1.11;99.38;102049.63;1832396;78;20431;-36
2020/12/19 01:34:31;;;;;;;;;;;;;;;-1.10;99.54;102055.26;1832895;78;20149;-38
2020/12/19 01:36:59;;;;;;;;;;;;;;;-1.11;99.63;102044.88;1832350;78;20144;-36
2020/12/19 01:39:27;;;;;;;;;;;;;;;-1.15;99.78;102052.86;1832716;78;20287;-37
2020/12/19 01:41:55;;;;;;;;;;;;;;;-1.14;99.96;102051.17;1832718;78;20238;-37
2020/12/19 01:44:22;;;;;;;;;;;;;;;-1.15;100.00;102044.25;1832683;78;20172;-36
2020/12/19 01:46:58;;;;;;;;;;;;;;;-1.16;100.00;102048.91;1832633;78;20283;-37
2020/12/19 01:49:28;;;;;;;;;;;;;;;-1.19;100.00;102050.94;1832861;78;20176;-37
2020/12/19 01:51:58;;;;;;;;;;;;;;;-1.21;100.00;102052.14;1832572;78;20136;-41
2020/12/19 01:54:26;;;;;;;;;;;;;;;-1.24;100.00;102050.67;1832444;78;20180;-37
2020/12/19 01:56:54;;;;;;;;;;;;;;;-1.25;100.00;102049.34;1832441;78;20137;-36
2020/12/19 01:59:24;;;;;;;;;;;;;;;-1.25;100.00;102048.91;1832840;78;20397;-37
2020/12/19 02:01:54;;;;;;;;;;;;;;;-1.26;100.00;102039.45;1832556;78;20377;-35
2020/12/19 02:04:24;;;;;;;;;;;;;;;-1.27;100.00;102044.50;1857725;77;20245;-37
2020/12/19 02:06:52;;;;;;;;;;;;;;;-1.27;100.00;102045.39;1866261;77;20114;-36
2020/12/19 02:09:22;;;;;;;;;;;;;;;-1.27;100.00;102044.50;1866507;77;20158;-36
2020/12/19 02:11:49;;;;;;;;;;;;;;;-1.27;100.00;102041.53;1866335;77;20392;-37
2020/12/19 02:14:18;;;;;;;;;;;;;;;-1.24;100.00;102045.53;1866461;77;20296;-36
2020/12/19 02:17:00;;;;;;;;;;;;;;;-1.23;100.00;102038.30;1866212;77;20388;-35
2020/12/19 02:19:29;;;;;;;;;;;;;;;-1.21;100.00;102035.42;1866223;77;20226;-36
2020/12/19 02:21:57;;;;;;;;;;;;;;;-1.19;100.00;102033.33;1866181;77;20158;-35
2020/12/19 02:26:51;;;;;;;;;;;;;;;-1.12;100.00;102022.55;1918185;74;20471;-36
2020/12/19 02:29:19;;;;;;;;;;;;;;;-1.17;100.00;102020.12;1882032;75;20567;-35
2020/12/19 02:31:47;;;;;;;;;;;;;;;-1.17;100.00;102027.44;1901229;75;20232;-35
2020/12/19 02:34:15;;;;;;;;;;;;;;;-1.15;100.00;102024.95;1902496;75;20120;-36
2020/12/19 02:36:43;;;;;;;;;;;;;;;-1.13;100.00;102024.64;1903355;75;20140;-36
2020/12/19 02:39:11;;;;;;;;;;;;;;;-1.12;100.00;102022.55;1903062;75;20152;-36
2020/12/19 02:41:41;;;;;;;;;;;;;;;-1.13;100.00;102021.66;1903318;75;20385;-36
2020/12/19 02:44:14;;;;;;;;;;;;;;;-1.13;100.00;102025.53;1902694;75;20124;-37
2020/12/19 02:46:41;;;;;;;;;;;;;;;-1.14;100.00;102021.58;1902987;75;20184;-35
2020/12/19 02:49:09;;;;;;;;;;;;;;;-1.13;100.00;102018.20;1903055;75;20393;-37
2020/12/19 02:51:37;;;;;;;;;;;;;;;-1.12;100.00;102017.41;1903322;75;20187;-35
2020/12/19 02:54:07;;;;;;;;;;;;;;;-1.12;100.00;102017.00;1883487;75;20198;-35
2020/12/19 02:56:36;;;;;;;;;;;;;;;-1.12;100.00;102016.12;1869082;75;20821;-36
2020/12/19 02:59:13;;;;;;;;;;;;;;;-1.14;100.00;102011.29;1858488;75;20144;-37
2020/12/19 03:01:41;;;;;;;;;;;;;;;-1.16;100.00;102009.03;1899180;75;20185;-36
2020/12/19 03:04:08;;;;;;;;;;;;;;;-1.17;100.00;102003.39;1874215;75;20298;-37
2020/12/19 03:06:36;;;;;;;;;;;;;;;-1.18;100.00;102005.52;1877502;75;20150;-36
2020/12/19 03:09:04;;;;;;;;;;;;;;;-1.21;100.00;101996.83;1882429;75;20164;-37
2020/12/19 03:11:32;;;;;;;;;;;;;;;-1.21;100.00;101997.22;1871717;75;20190;-34
2020/12/19 03:13:59;;;;;;;;;;;;;;;-1.21;100.00;101998.51;1872145;75;20224;-35
2020/12/19 03:16:27;;;;;;;;;;;;;;;-1.21;100.00;101998.51;1867872;77;20304;-36
2020/12/19 03:18:55;;;;;;;;;;;;;;;-1.21;100.00;102001.08;1867939;77;20158;-36
2020/12/19 03:21:23;;;;;;;;;;;;;;;-1.21;100.00;101994.66;1867886;77;20130;-36
2020/12/19 03:23:50;;;;;;;;;;;;;;;-1.21;100.00;101994.66;1868166;77;20142;-36
2020/12/19 03:26:19;;;;;;;;;;;;;;;-1.22;100.00;101999.31;1868007;77;20489;-36
2020/12/19 03:28:47;;;;;;;;;;;;;;;-1.23;100.00;101996.25;1868235;77;20162;-36
2020/12/19 03:31:15;;;;;;;;;;;;;;;-1.25;100.00;101991.02;1868001;77;20197;-38
2020/12/19 03:33:43;;;;;;;;;;;;;;;-1.24;100.00;101994.08;1867897;77;20134;-38
2020/12/19 03:36:11;;;;;;;;;;;;;;;-1.23;100.00;101985.95;1867878;77;20162;-35
2020/12/19 03:38:39;;;;;;;;;;;;;;;-1.18;100.00;101987.50;1867506;77;20134;-35
2020/12/19 03:41:08;;;;;;;;;;;;;;;-1.16;100.00;101992.30;1867375;77;20130;-36
2020/12/19 03:43:36;;;;;;;;;;;;;;;-1.16;100.00;101988.05;1867599;77;20134;-36
2020/12/19 03:46:03;;;;;;;;;;;;;;;-1.16;100.00;101986.76;1867305;77;20166;-35
2020/12/19 03:48:31;;;;;;;;;;;;;;;-1.16;100.00;101994.48;1867532;77;20277;-35
2020/12/19 03:50:58;;;;;;;;;;;;;;;-1.15;100.00;101995.36;1867405;77;20166;-36
2020/12/19 03:53:26;;;;;;;;;;;;;;;-1.17;100.00;101993.10;1834547;77;20245;-36
2020/12/19 03:55:54;;;;;;;;;;;;;;;-1.17;100.00;101993.10;1867211;77;20139;-35
2020/12/19 03:58:29;;;;;;;;;;;;;;;-1.18;100.00;101992.66;1813412;77;20237;-36
2020/12/19 04:00:57;;;;;;;;;;;;;;;-1.21;100.00;101988.22;1802693;77;20146;-35
2020/12/19 04:03:25;;;;;;;;;;;;;;;-1.23;100.00;101991.98;1867184;77;20138;-36
2020/12/19 04:05:52;;;;;;;;;;;;;;;-1.23;100.00;101988.13;1867365;77;20368;-36
2020/12/19 04:08:21;;;;;;;;;;;;;;;-1.23;100.00;101991.98;1893446;75;20263;-36
2020/12/19 04:10:48;;;;;;;;;;;;;;;-1.24;100.00;101985.47;1902196;75;20192;-34
2020/12/19 04:13:17;;;;;;;;;;;;;;;-1.22;100.00;101991.59;1902607;75;20159;-35
2020/12/19 04:15:44;;;;;;;;;;;;;;;-1.24;100.00;101991.51;1902538;75;20137;-35
2020/12/19 04:18:12;;;;;;;;;;;;;;;-1.22;100.00;101995.45;1902269;75;20231;-35
2020/12/19 04:20:40;;;;;;;;;;;;;;;-1.22;100.00;102000.20;1902241;75;20397;-36
2020/12/19 04:23:08;;;;;;;;;;;;;;;-1.19;100.00;101998.59;1902353;75;20153;-35
2020/12/19 04:25:36;;;;;;;;;;;;;;;-1.19;100.00;101999.48;1902327;75;20136;-37
2020/12/19 04:28:03;;;;;;;;;;;;;;;-1.18;100.00;101997.80;1902260;75;20219;-34
2020/12/19 04:30:31;;;;;;;;;;;;;;;-1.16;100.00;101998.73;1881320;75;20273;-36
2020/12/19 04:32:59;;;;;;;;;;;;;;;-1.14;100.00;101997.13;1867470;77;20245;-35
2020/12/19 04:35:26;;;;;;;;;;;;;;;-1.14;100.00;101995.84;1867312;77;20170;-36
2020/12/19 04:37:54;;;;;;;;;;;;;;;-1.14;100.00;101999.70;1867496;77;20209;-37
2020/12/19 04:40:22;;;;;;;;;;;;;;;-1.14;100.00;101998.02;1867229;77;20166;-37
2020/12/19 04:42:49;;;;;;;;;;;;;;;-1.13;100.00;102000.20;1867396;77;20145;-35
2020/12/19 04:45:17;;;;;;;;;;;;;;;-1.15;100.00;102001.39;1867268;77;20182;-36
2020/12/19 04:47:44;;;;;;;;;;;;;;;-1.15;100.00;102001.39;1867353;75;20206;-36
2020/12/19 04:50:13;;;;;;;;;;;;;;;-1.14;100.00;101999.70;1867404;77;20228;-38
2020/12/19 04:52:41;;;;;;;;;;;;;;;-1.15;100.00;102005.25;1867245;77;20169;-36
2020/12/19 04:55:09;;;;;;;;;;;;;;;-1.16;100.00;102006.05;1878496;75;20136;-37
2020/12/19 04:57:37;;;;;;;;;;;;;;;-1.18;100.00;102008.09;1845890;77;20199;-38
2020/12/19 05:00:05;;;;;;;;;;;;;;;-1.17;100.00;102004.28;1846013;77;20223;-37
2020/12/19 05:02:32;;;;;;;;;;;;;;;-1.16;100.00;102012.89;1867405;77;20390;-36
2020/12/19 05:05:04;;;;;;;;;;;;;;;-1.18;100.00;102009.37;1867402;77;20132;-36
2020/12/19 05:07:34;;;;;;;;;;;;;;;-1.21;100.00;102012.27;1866494;76;20264;-35
2020/12/19 05:10:01;;;;;;;;;;;;;;;-1.21;100.00;102014.83;1866787;75;20439;-35
2020/12/19 05:12:30;;;;;;;;;;;;;;;-1.19;100.00;102016.61;1867072;77;20289;-36
2020/12/19 05:14:58;;;;;;;;;;;;;;;-1.18;100.00;102015.81;1839797;77;20189;-36
2020/12/19 05:17:26;;;;;;;;;;;;;;;-1.17;100.00;102017.55;1867244;77;20408;-35
2020/12/19 05:19:53;;;;;;;;;;;;;;;-1.16;100.00;102016.34;1866693;77;20221;-36
2020/12/19 05:22:26;;;;;;;;;;;;;;;-1.13;100.00;102020.78;1866937;77;20308;-36
2020/12/19 05:24:54;;;;;;;;;;;;;;;-1.12;100.00;102025.12;1866689;76;20163;-36
2020/12/19 05:27:22;;;;;;;;;;;;;;;-1.13;100.00;102019.49;1848280;77;20284;-36
2020/12/19 05:29:49;;;;;;;;;;;;;;;-1.13;100.00;102025.92;1824824;77;20206;-36
2020/12/19 05:32:18;;;;;;;;;;;;;;;-1.13;100.00;102027.22;1868310;75;20186;-36
2020/12/19 05:34:48;;;;;;;;;;;;;;;-1.11;100.00;102030.72;1866776;75;20128;-37
2020/12/19 05:37:17;;;;;;;;;;;;;;;-1.11;100.00;102029.44;1886079;75;20298;-35
2020/12/19 05:39:52;;;;;;;;;;;;;;;-1.11;100.00;102030.33;1866990;76;20134;-37
2020/12/19 05:42:23;;;;;;;;;;;;;;;-1.10;100.00;102032.09;1866677;75;20139;-36
2020/12/19 05:44:51;;;;;;;;;;;;;;;-1.09;100.00;102035.16;1880038;75;20155;-35
2020/12/19 05:47:19;;;;;;;;;;;;;;;-1.09;100.00;102032.59;1877178;75;20149;-36
2020/12/19 05:49:47;;;;;;;;;;;;;;;-1.06;100.00;102029.30;1838142;75;20200;-36
2020/12/19 05:52:16;;;;;;;;;;;;;;;-1.06;100.00;102036.62;1866693;75;20390;-36
2020/12/19 05:54:44;;;;;;;;;;;;;;;-1.06;100.00;102040.88;1867129;77;20207;-35
2020/12/19 05:57:12;;;;;;;;;;;;;;;-1.08;100.00;102036.94;1867220;77;20154;-35
2020/12/19 05:59:40;;;;;;;;;;;;;;;-1.08;100.00;102043.77;1867077;77;20123;-36
2020/12/19 06:02:07;;;;;;;;;;;;;;;-1.10;100.00;102042.79;1888752;75;20421;-36
2020/12/19 06:04:35;;;;;;;;;;;;;;;-1.09;100.00;102045.45;1858530;75;20259;-37
2020/12/19 06:07:02;;;;;;;;;;;;;;;-1.08;100.00;102047.23;1857244;77;20136;-36
2020/12/19 06:09:31;;;;;;;;;;;;;;;-1.08;100.00;102043.37;1866710;77;20129;-36
2020/12/19 06:12:08;;;;;;;;;;;;;;;-1.07;100.00;102049.40;1870345;75;20309;-37
2020/12/19 06:14:37;;;;;;;;;;;;;;;-1.10;100.00;102052.69;1871161;75;20186;-37
2020/12/19 06:17:25;;;;;;;;;;;;;;;-1.12;100.00;102056.00;1867331;77;20396;-36
2020/12/19 06:19:52;;;;;;;;;;;;;;;-1.14;100.00;102054.63;1866648;77;20182;-37
2020/12/19 06:22:29;;;;;;;;;;;;;;;-1.11;100.00;102059.03;1875997;75;20303;-35
2020/12/19 06:26:49;;;;;;;;;;;;;;;-1.02;100.00;102053.09;1904903;74;20694;-36
2020/12/19 06:29:17;;;;;;;;;;;;;;;-1.03;100.00;102052.20;1851516;75;20198;-36
2020/12/19 06:31:45;;;;;;;;;;;;;;;-0.96;100.00;102063.70;1873609;75;20182;-36
2020/12/19 06:34:12;;;;;;;;;;;;;;;-0.95;100.00;102053.89;1831871;75;20223;-34
2020/12/19 06:36:40;;;;;;;;;;;;;;;-0.94;100.00;102055.66;1855805;75;20168;-36
2020/12/19 06:39:09;;;;;;;;;;;;;;;-0.96;100.00;102054.28;1844503;75;20140;-37
2020/12/19 06:41:49;;;;;;;;;;;;;;;-0.95;100.00;102054.77;1874636;75;20157;-38
2020/12/19 06:44:29;;;;;;;;;;;;;;;-0.95;100.00;102061.61;1877199;75;20205;-35
2020/12/19 06:46:58;;;;;;;;;;;;;;;-0.93;100.00;102060.01;1874091;75;20203;-38
2020/12/19 06:49:27;;;;;;;;;;;;;;;-0.91;100.00;102057.97;1876702;75;20185;-38
2020/12/19 06:52:06;;;;;;;;;;;;;;;-0.91;100.00;102063.52;1881649;75;20168;-37
2020/12/19 06:54:38;;;;;;;;;;;;;;;-0.90;100.00;102062.72;1871874;75;20195;-38
2020/12/19 06:57:08;;;;;;;;;;;;;;;-0.93;100.00;102064.75;1875080;75;20573;-38
2020/12/19 06:59:36;;;;;;;;;;;;;;;-0.94;100.00;102064.67;1870023;75;20139;-38
2020/12/19 07:02:19;;;;;;;;;;;;;;;-0.94;100.00;102068.53;1876432;75;20146;-38
2020/12/19 07:04:47;;;;;;;;;;;;;;;-0.91;100.00;102068.67;1869307;75;20651;-36
2020/12/19 07:07:23;;;;;;;;;;;;;;;-0.88;100.00;102073.99;1876413;75;20248;-38
2020/12/19 07:09:56;;;;;;;;;;;;;;;-0.86;100.00;102064.66;1870432;75;20284;-36
2020/12/19 07:12:32;;;;;;;;;;;;;;;-0.81;100.00;102067.06;1871196;75;20175;-35
2020/12/19 07:14:59;;;;;;;;;;;;;;;-0.76;100.00;102072.04;1869837;75;20265;-38
2020/12/19 07:17:27;;;;;;;;;;;;;;;-0.67;100.00;102071.23;1871736;75;20157;-38
2020/12/19 07:20:00;;;;;;;;;;;;;;;-0.64;100.00;102074.34;1870797;75;20193;-38
2020/12/19 07:22:28;;;;;;;;;;;;;;;-0.62;100.00;102072.34;1866883;75;20192;-38
2020/12/19 07:24:56;;;;;;;;;;;;;;;-0.60;100.00;102076.28;1866848;77;20174;-36
2020/12/19 07:27:23;;;;;;;;;;;;;;;-0.59;100.00;102073.77;1866357;75;20295;-37
2020/12/19 07:29:59;;;;;;;;;;;;;;;-0.58;100.00;102079.40;1868295;75;20426;-34
2020/12/19 07:32:27;;;;;;;;;;;;;;;-0.57;100.00;102078.59;1867242;75;20224;-37
2020/12/19 07:34:56;;;;;;;;;;;;;;;-0.60;100.00;102069.84;1872158;75;20278;-36
2020/12/19 07:37:24;;;;;;;;;;;;;;;-0.61;100.00;102073.22;1866875;75;20199;-38
2020/12/19 07:40:04;;;;;;;;;;;;;;;-0.63;100.00;102065.41;1877446;75;20171;-37
2020/12/19 07:42:36;;;;;;;;;;;;;;;-0.64;100.00;102070.08;1844453;75;20514;-38
2020/12/19 07:45:05;;;;;;;;;;;;;;;-0.66;100.00;102069.54;1865544;76;20194;-38
2020/12/19 07:47:33;;;;;;;;;;;;;;;-0.68;100.00;102065.59;1866809;75;20203;-37
2020/12/19 07:50:00;;;;;;;;;;;;;;;-0.64;100.00;102062.75;1870590;75;20292;-44
2020/12/19 07:52:28;;;;;;;;;;;;;;;-0.61;100.00;102059.95;1870369;75;20294;-38
2020/12/19 07:55:00;;;;;;;;;;;;;;;-0.56;100.00;102055.02;1868104;75;20186;-37
2020/12/19 07:57:29;;;;;;;;;;;;;;;-0.51;100.00;102054.83;1866871;75;20213;-35
2020/12/19 07:59:58;;;;;;;;;;;;;;;-0.48;100.00;102052.02;1870708;75;20265;-39
2020/12/19 08:02:25;;;;;;;;;;;;;;;-0.45;100.00;102053.44;1873995;75;20292;-39
2020/12/19 08:04:58;;;;;;;;;;;;;;;-0.42;100.00;102049.75;1868954;75;20213;-38
2020/12/19 08:07:27;;;;;;;;;;;;;;;-0.38;100.00;102047.30;1871047;75;20186;-37
2020/12/19 08:09:59;;;;;;;;;;;;;;;-0.35;100.00;102048.75;1870587;75;20162;-41
2020/12/19 08:12:27;;;;;;;;;;;;;;;-0.31;100.00;102041.64;1873486;75;20403;-42
2020/12/19 08:14:55;;;;;;;;;;;;;;;-0.29;100.00;102037.05;1870032;75;20189;-42
2020/12/19 08:17:23;;;;;;;;;;;;;;;-0.28;100.00;102031.50;1868628;75;20300;-42
2020/12/19 08:19:54;;;;;;;;;;;;;;;-0.27;100.00;102032.88;1866519;75;20182;-41
2020/12/19 08:22:22;;;;;;;;;;;;;;;-0.27;100.00;102031.98;1868133;75;20200;-41
2020/12/19 08:24:51;;;;;;;;;;;;;;;-0.27;100.00;102021.27;1865921;75;20198;-41
2020/12/19 08:27:43;;;;;;;;;;;;;;;-0.23;100.00;102026.16;1869372;75;20184;-41
2020/12/19 08:30:14;;;;;;;;;;;;;;;-0.24;100.00;102026.96;1836283;77;20200;-41
2020/12/19 08:33:03;;;;;;;;;;;;;;;-0.24;100.00;102025.27;1823360;77;20137;-41
2020/12/19 08:35:28;;;;;;;;;;;;;;;-0.25;100.00;102020.92;1808063;78;20239;-40
2020/12/19 08:38:07;;;;;;;;;;;;;;;-0.31;100.00;102013.30;1807518;78;20206;-39
2020/12/19 08:40:39;;;;;;;;;;;;;;;-0.41;100.00;102014.16;1805735;78;20163;-40
2020/12/19 08:43:08;;;;;;;;;;;;;;;-0.48;100.00;102021.11;1809745;78;20219;-39
2020/12/19 08:45:37;;;;;;;;;;;;;;;-0.53;100.00;102026.85;1808564;78;20185;-38
2020/12/19 08:48:09;;;;;;;;;;;;;;;-0.61;100.00;102017.45;1812831;78;20180;-36
2020/12/19 08:50:38;;;;;;;;;;;;;;;-0.62;100.00;102013.51;1808864;78;20591;-39
2020/12/19 08:53:18;;;;;;;;;;;;;;;-0.66;100.00;102012.48;1809236;78;20175;-36
2020/12/19 08:55:46;;;;;;;;;;;;;;;-0.70;100.00;102005.40;1805841;78;20182;-35
2020/12/19 08:58:26;;;;;;;;;;;;;;;-0.73;100.00;102009.13;1809570;78;20291;-37
2020/12/19 09:00:58;;;;;;;;;;;;;;;-0.74;100.00;102006.47;1809271;78;20332;-37
2020/12/19 09:03:31;;;;;;;;;;;;;;;-0.76;100.00;102010.65;1806499;78;20277;-38
2020/12/19 09:06:07;;;;;;;;;;;;;;;-0.81;100.00;102003.59;1812794;78;20234;-39
2020/12/19 09:08:43;;;;;;;;;;;;;;;-0.83;100.00;102010.75;1810800;78;20221;-41
2020/12/19 09:11:25;;;;;;;;;;;;;;;-0.85;100.00;102005.91;1806328;78;20190;-39
2020/12/19 09:14:08;;;;;;;;;;;;;;;-0.85;100.00;102000.77;1809681;78;20281;-37
2020/12/19 09:16:50;;;;;;;;;;;;;;;-0.85;100.00;101998.19;1805420;78;20213;-38
2020/12/19 09:19:18;;;;;;;;;;;;;;;-0.83;100.00;101997.47;1805110;78;20816;-37
2020/12/19 09:22:00;;;;;;;;;;;;;;;-0.80;100.00;102001.91;1806525;78;20221;-36
2020/12/19 09:24:29;;;;;;;;;;;;;;;-0.78;100.00;101995.11;1807024;78;20283;-40
2020/12/19 09:26:57;;;;;;;;;;;;;;;-0.75;100.00;101987.95;1811975;78;20174;-39
2020/12/19 09:29:24;;;;;;;;;;;;;;;-0.77;100.00;101989.16;1792662;78;20190;-38
2020/12/19 09:31:52;;;;;;;;;;;;;;;-0.81;100.00;101986.86;1810676;78;20193;-39
2020/12/19 09:34:19;;;;;;;;;;;;;;;-0.86;100.00;101989.61;1812146;78;20284;-40
2020/12/19 09:36:47;;;;;;;;;;;;;;;-0.92;100.00;101984.56;1813162;78;20190;-38
2020/12/19 09:39:15;;;;;;;;;;;;;;;-0.94;100.00;101986.16;1806487;78;20139;-39
2020/12/19 09:41:43;;;;;;;;;;;;;;;-0.97;100.00;101986.88;1807599;78;20202;-37
2020/12/19 09:44:11;;;;;;;;;;;;;;;-0.98;100.00;101985.11;1808850;78;20185;-39
2020/12/19 09:46:39;;;;;;;;;;;;;;;-0.99;100.00;101985.05;1805411;78;20204;-38
2020/12/19 09:49:06;;;;;;;;;;;;;;;-0.98;100.00;101985.11;1806369;78;20171;-37
2020/12/19 09:51:34;;;;;;;;;;;;;;;-0.98;100.00;101985.51;1807428;78;20190;-40
2020/12/19 09:54:02;;;;;;;;;;;;;;;-0.99;100.00;101982.48;1803998;78;20293;-37
2020/12/19 09:56:43;;;;;;;;;;;;;;;-0.99;100.00;101977.34;1787042;79;20149;-66
2020/12/19 09:59:11;;;;;;;;;;;;;;;-0.98;100.00;101978.67;1766127;81;20164;-65
2020/12/19 10:01:40;;;;;;;;;;;;;;;-0.99;100.00;101979.51;1764435;79;20279;-70
2020/12/19 10:04:08;;;;;;;;;;;;;;;-1.01;100.00;101982.40;1770292;80;20201;-64
2020/12/19 10:06:36;;;;;;;;;;;;;;;-1.00;100.00;101986.75;1834865;76;20223;-66
2020/12/19 10:09:03;;;;;;;;;;;;;;;-0.99;100.00;101975.65;1803610;79;20163;-65
2020/12/19 10:11:32;;;;;;;;;;;;;;;-0.99;100.00;101979.91;1800490;79;20532;-66
2020/12/19 10:14:01;;;;;;;;;;;;;;;-0.95;100.00;101970.23;1831302;77;20149;-64
2020/12/19 10:16:29;;;;;;;;;;;;;;;-0.91;100.00;101970.86;1800008;78;20150;-63
2020/12/19 10:18:58;;;;;;;;;;;;;;;-0.91;100.00;101970.86;1774224;80;20157;-66
2020/12/19 10:21:25;;;;;;;;;;;;;;;-0.89;100.00;101966.28;1827977;77;20268;-66
2020/12/19 10:26:49;;;;;;;;;;;;;;;-0.78;100.00;101955.20;1898618;74;20187;-63
2020/12/19 10:29:17;;;;;;;;;;;;;;;-0.83;100.00;101965.29;1869254;75;20153;-62
2020/12/19 10:31:45;;;;;;;;;;;;;;;-0.86;100.00;101965.16;1873004;75;20255;-64
2020/12/19 10:34:13;;;;;;;;;;;;;;;-0.88;100.00;101960.73;1871126;75;20272;-66
2020/12/19 10:36:41;;;;;;;;;;;;;;;-0.90;100.00;101961.93;1888512;75;20448;-65
2020/12/19 10:39:09;;;;;;;;;;;;;;;-0.91;100.00;101963.13;1869972;75;20160;-68
2020/12/19 10:41:42;;;;;;;;;;;;;;;-0.92;100.00;101953.67;1862240;76;20207;-65
2020/12/19 10:44:20;;;;;;;;;;;;;;;-0.89;100.00;101956.38;1818593;78;20461;-65
2020/12/19 10:46:49;;;;;;;;;;;;;;;-0.83;100.00;101952.82;1793316;78;20149;-65
2020/12/19 10:49:19;;;;;;;;;;;;;;;-0.81;100.00;101948.64;1853256;77;20146;-64
2020/12/19 10:51:47;;;;;;;;;;;;;;;-0.81;100.00;101945.66;1835358;77;20466;-65
2020/12/19 10:54:16;;;;;;;;;;;;;;;-0.82;100.00;101945.58;1840702;77;20165;-63
2020/12/19 10:56:45;;;;;;;;;;;;;;;-0.79;100.00;101942.28;1863764;75;20170;-63
2020/12/19 10:59:15;;;;;;;;;;;;;;;-0.77;100.00;101944.51;1875530;75;20186;-68
2020/12/19 11:01:43;;;;;;;;;;;;;;;-0.72;100.00;101943.06;1830422;76;20247;-67
2020/12/19 11:04:12;;;;;;;;;;;;;;;-0.71;100.00;101935.80;1804049;78;20167;-64
2020/12/19 11:06:39;;;;;;;;;;;;;;;-0.69;100.00;101936.77;1826030;78;20436;-67
2020/12/19 11:09:07;;;;;;;;;;;;;;;-0.68;100.00;101936.84;1842495;78;20147;-66
2020/12/19 11:11:35;;;;;;;;;;;;;;;-0.62;100.00;101934.97;1832753;78;20156;-64
2020/12/19 11:14:03;;;;;;;;;;;;;;;-0.58;100.00;101935.58;1821557;77;20178;-65
2020/12/19 11:16:30;;;;;;;;;;;;;;;-0.51;100.00;101935.06;1812810;77;20275;-64
2020/12/19 11:18:58;;;;;;;;;;;;;;;-0.51;100.00;101937.23;1829497;78;20387;-63
2020/12/19 11:21:25;;;;;;;;;;;;;;;-0.52;100.00;101941.91;1825401;77;20176;-63
2020/12/19 11:23:54;;;;;;;;;;;;;;;-0.49;100.00;101940.78;1801339;78;20172;-62
2020/12/19 11:26:22;;;;;;;;;;;;;;;-0.47;100.00;101934.42;1833272;77;20349;-65
2020/12/19 11:29:05;;;;;;;;;;;;;;;-0.46;100.00;101933.18;1840971;77;20192;-67
2020/12/19 11:31:36;;;;;;;;;;;;;;;-0.44;100.00;101932.86;1795461;79;20246;-64
2020/12/19 11:34:04;;;;;;;;;;;;;;;-0.37;100.00;101935.31;1769670;80;20517;-65
2020/12/19 11:36:38;;;;;;;;;;;;;;;-0.34;99.89;101929.44;1793886;80;20199;-64
2020/12/19 11:39:11;;;;;;;;;;;;;;;-0.34;99.57;101929.03;1791066;79;20318;-65
2020/12/19 11:41:40;;;;;;;;;;;;;;;-0.33;99.30;101926.94;1737120;80;20222;-65
2020/12/19 11:44:08;;;;;;;;;;;;;;;-0.37;98.97;101930.16;1726574;81;20172;-67
2020/12/19 11:46:35;;;;;;;;;;;;;;;-0.39;98.68;101926.62;1756307;81;20191;-64
2020/12/19 11:49:03;;;;;;;;;;;;;;;-0.42;98.42;101920.05;1727792;82;20267;-67
2020/12/19 11:51:35;;;;;;;;;;;;;;;-0.45;98.29;101924.64;1776240;79;20296;-62
2020/12/19 11:54:05;;;;;;;;;;;;;;;-0.48;98.20;101927.50;1762319;80;20322;-65
2020/12/19 11:56:35;;;;;;;;;;;;;;;-0.53;98.17;101932.84;1785761;78;20145;-67
2020/12/19 11:59:03;;;;;;;;;;;;;;;-0.57;98.16;101929.22;1742208;81;20157;-66
2020/12/19 12:01:31;;;;;;;;;;;;;;;-0.62;98.20;101930.70;1751641;79;20183;-64
2020/12/19 12:03:58;;;;;;;;;;;;;;;-0.66;98.25;101938.22;1770727;79;20368;-67
2020/12/19 12:06:29;;;;;;;;;;;;;;;-0.70;98.41;101933.30;1772525;80;20170;-65
2020/12/19 12:08:59;;;;;;;;;;;;;;;-0.69;98.51;101935.08;1763206;80;20165;-66
2020/12/19 12:11:28;;;;;;;;;;;;;;;-0.68;98.58;101939.82;1761429;81;20149;-65
2020/12/19 12:13:56;;;;;;;;;;;;;;;-0.73;98.62;101935.75;1767620;79;20147;-61
2020/12/19 12:16:24;;;;;;;;;;;;;;;-0.75;98.65;101937.75;1773996;79;20178;-65
2020/12/19 12:18:52;;;;;;;;;;;;;;;-0.77;98.69;101950.55;1772464;79;20211;-65
2020/12/19 12:21:19;;;;;;;;;;;;;;;-0.81;98.74;101938.34;1739647;82;20190;-63
2020/12/19 12:23:48;;;;;;;;;;;;;;;-0.82;98.88;101938.74;1770744;79;20168;-64
2020/12/19 12:26:25;;;;;;;;;;;;;;;-0.79;98.96;101939.31;1736567;81;20187;-67
2020/12/19 12:28:53;;;;;;;;;;;;;;;-0.79;99.05;101941.89;1741245;80;20236;-67
2020/12/19 12:31:26;;;;;;;;;;;;;;;-0.79;99.11;101933.27;1758235;80;20473;-64
2020/12/19 12:33:54;;;;;;;;;;;;;;;-0.81;99.22;101941.80;1776978;79;20254;-66
2020/12/19 12:39:23;;;;;;;;;;;;;;;-0.86;99.53;101941.98;1798749;78;20958;-66
2020/12/19 12:41:53;;;;;;;;;;;;;;;-0.90;99.74;101945.20;1788203;79;20190;-66
2020/12/19 12:44:20;;;;;;;;;;;;;;;-0.92;99.90;101942.09;1833260;78;20132;-63
2020/12/19 12:46:49;;;;;;;;;;;;;;;-0.94;100.00;101931.71;1811053;78;20229;-68
2020/12/19 12:52:22;;;;;;;;;;;;;;;-0.98;100.00;101943.93;1792542;78;20151;-65